Decoded Metar for KJNX (SMITHFIELD JOHNS in NC, USA) (IATA:JNX) | Meteo·Mobile Aviation Weather
aviador You're here:

KJNX Decoded Metar

SMITHFIELD JOHNS in NC, USA
Report Time2019-01-17 23:10:00
UTC Time2019-01-17 23:13:17
Flight Rules vfr VFR
WindCalm
Visibility9999 m
Phenomena:N/A
Clouds:Scattered 055 Hf
Broken 070 Hf
Overcast 090 Hf
Expected CloudBase > 1,600 ft AGL from Temp-Dew spread
Ceiling7,000 ft
Temp08°C (ISA -7)
Dew Point04°C (76% RH)
AAT6.7°C
QNH1022 hPa
Density Alt-830 ft
Elevation164 ft
Report Wrong Elevation
Raw Report
METAR KJNX 172310Z AUTO 00000KT 10SM SCT055 BKN070 OVC090 08/04 A3019
RMK AO2=

Extra information for KJNX:More info

Metar Taf Metar & Taf Last 4 Metars F.Rules Stats Wind Profile Meteogram Temp Stats Airport Information Weather charts Add Link Nearby VenuesMetar ALERT Operation Metar Decoded Social comments

AIRNAV info for KJNX